createdAt,value
2018-12-18T00:00:09.031Z,9.09
2018-12-18T00:02:52.302Z,9.09
2018-12-18T00:05:34.943Z,8.77
2018-12-18T00:08:16.425Z,8.80
2018-12-18T00:11:10.377Z,9.07
2018-12-18T00:13:51.306Z,9.06
2018-12-18T00:16:34.629Z,9.06
2018-12-18T00:19:15.334Z,9.06
2018-12-18T00:21:43.595Z,9.06
2018-12-18T00:24:11.881Z,9.07
2018-12-18T00:26:55.070Z,9.04
2018-12-18T00:29:23.360Z,9.04
2018-12-18T00:32:08.218Z,9.01
2018-12-18T00:34:49.772Z,8.73
2018-12-18T00:37:31.265Z,8.95
2018-12-18T00:39:59.549Z,8.94
2018-12-18T00:42:42.328Z,8.90
2018-12-18T00:45:23.875Z,8.57
2018-12-18T00:47:52.213Z,8.84
2018-12-18T00:50:45.725Z,8.82
2018-12-18T00:53:30.140Z,8.82
2018-12-18T00:56:14.688Z,8.81
2018-12-18T00:58:59.182Z,8.79
2018-12-18T01:01:39.803Z,8.78
2018-12-18T01:04:23.288Z,8.48
2018-12-18T01:06:51.575Z,8.77
2018-12-18T01:09:36.410Z,8.77
2018-12-18T01:12:25.577Z,8.75
2018-12-18T01:15:10.410Z,8.73
2018-12-18T01:20:51.306Z,8.39
2018-12-18T01:23:34.758Z,8.37
2018-12-18T01:26:18.222Z,8.35
2018-12-18T01:28:46.567Z,8.58
2018-12-18T01:31:14.841Z,8.55
2018-12-18T01:34:00.128Z,8.52
2018-12-18T01:36:28.385Z,8.47
2018-12-18T01:38:56.671Z,8.43
2018-12-18T01:41:24.929Z,8.38
2018-12-18T01:44:22.777Z,8.07
2018-12-18T01:47:06.197Z,8.27
2018-12-18T01:49:46.942Z,8.19
2018-12-18T01:52:15.228Z,8.13
2018-12-18T01:58:08.954Z,7.96
2018-12-18T02:00:53.697Z,7.61
2018-12-18T02:03:34.392Z,7.81
2018-12-18T02:06:17.743Z,7.45
2018-12-18T02:09:02.291Z,7.62
2018-12-18T02:11:46.881Z,7.54
2018-12-18T02:14:38.913Z,7.11
2018-12-18T02:17:07.212Z,7.34
2018-12-18T02:19:48.438Z,7.27
2018-12-18T02:22:16.714Z,7.20
2018-12-18T02:25:01.541Z,7.12
2018-12-18T02:27:46.193Z,6.77
2018-12-18T02:30:39.675Z,6.97
2018-12-18T02:33:21.232Z,6.89
2018-12-18T02:36:04.577Z,6.42
2018-12-18T02:38:49.088Z,6.77
2018-12-18T02:41:32.617Z,6.71
2018-12-18T02:44:01.019Z,6.65
2018-12-18T02:46:45.710Z,6.45
2018-12-18T02:49:30.241Z,6.54
2018-12-18T02:51:58.499Z,6.49
2018-12-18T02:54:26.782Z,6.43
2018-12-18T02:57:21.116Z,6.38
2018-12-18T03:00:05.279Z,6.34
2018-12-18T03:02:49.969Z,6.30
2018-12-18T03:05:30.726Z,6.27
2018-12-18T03:08:12.264Z,5.93
2018-12-18T03:10:40.515Z,6.20
2018-12-18T03:13:25.158Z,5.85
2018-12-18T03:15:53.412Z,6.13
2018-12-18T03:18:21.670Z,6.09
2018-12-18T03:21:03.207Z,6.07
2018-12-18T03:23:31.505Z,6.03
2018-12-18T03:26:16.244Z,5.99
2018-12-18T03:28:44.525Z,5.95
2018-12-18T03:31:25.670Z,5.90
2018-12-18T03:33:54.019Z,5.83
2018-12-18T03:36:22.306Z,5.76
2018-12-18T03:38:50.563Z,5.71
2018-12-18T03:41:31.412Z,5.31
2018-12-18T03:44:12.968Z,5.60
2018-12-18T03:47:06.578Z,5.56
2018-12-18T03:49:48.014Z,5.52
2018-12-18T03:52:16.308Z,5.49
2018-12-18T03:54:44.560Z,5.47
2018-12-18T03:57:12.829Z,5.45
2018-12-18T03:59:41.105Z,5.43
2018-12-18T04:02:09.368Z,5.40
2018-12-18T04:04:37.655Z,5.38
2018-12-18T04:07:05.917Z,5.39
2018-12-18T04:09:34.303Z,5.37
2018-12-18T04:12:09.308Z,5.38
2018-12-18T04:14:37.860Z,5.36
2018-12-18T04:17:06.240Z,5.37
2018-12-18T04:19:34.516Z,5.35
2018-12-18T04:22:02.808Z,5.35
2018-12-18T04:24:47.586Z,5.35
2018-12-18T04:27:15.892Z,5.36
2018-12-18T04:29:44.144Z,5.35
2018-12-18T04:32:12.435Z,5.35
2018-12-18T04:34:43.174Z,5.35
2018-12-18T04:37:11.053Z,5.34
2018-12-18T04:39:39.300Z,5.34
2018-12-18T04:42:08.434Z,5.33
2018-12-18T04:44:36.808Z,5.33
2018-12-18T04:47:05.076Z,5.33
2018-12-18T04:49:33.357Z,5.32
2018-12-18T04:52:18.104Z,5.33
2018-12-18T04:54:46.574Z,5.33
2018-12-18T04:57:14.828Z,5.33
2018-12-18T04:59:43.114Z,5.33
2018-12-18T05:02:11.386Z,5.33
2018-12-18T05:04:39.685Z,5.34
2018-12-18T05:07:07.930Z,5.34
2018-12-18T05:09:36.187Z,5.34
2018-12-18T05:12:04.471Z,5.34
2018-12-18T05:14:32.756Z,5.34
2018-12-18T05:17:01.014Z,5.34
2018-12-18T05:19:29.297Z,5.34
2018-12-18T05:21:57.560Z,5.33
2018-12-18T05:24:25.843Z,5.33
2018-12-18T05:26:54.129Z,5.33
2018-12-18T05:29:22.400Z,5.34
2018-12-18T05:31:50.681Z,5.32
2018-12-18T05:34:18.948Z,5.31
2018-12-18T05:36:59.698Z,5.31
2018-12-18T05:39:27.978Z,5.29
2018-12-18T05:41:56.244Z,5.28
2018-12-18T05:44:24.542Z,5.28
2018-12-18T05:46:52.793Z,5.26
2018-12-18T05:49:21.056Z,5.25
2018-12-18T05:51:49.342Z,5.24
2018-12-18T05:54:17.599Z,5.22
2018-12-18T05:56:45.888Z,5.21
2018-12-18T05:59:14.170Z,5.19
2018-12-18T06:01:57.042Z,5.16
2018-12-18T06:04:25.335Z,5.14
2018-12-18T06:06:53.626Z,5.13
2018-12-18T06:09:21.892Z,5.13
2018-12-18T06:11:50.188Z,5.13
2018-12-18T06:14:18.456Z,5.13
2018-12-18T06:16:46.733Z,5.10
2018-12-18T06:19:14.986Z,5.10
2018-12-18T06:21:43.275Z,5.08
2018-12-18T06:24:11.633Z,5.08
2018-12-18T06:26:39.889Z,5.07
2018-12-18T06:29:08.169Z,5.05
2018-12-18T06:31:36.541Z,5.04
2018-12-18T06:34:04.832Z,5.04
2018-12-18T06:36:33.134Z,5.04
2018-12-18T06:39:01.405Z,5.04
2018-12-18T06:41:29.660Z,5.04
2018-12-18T06:43:57.955Z,5.03
2018-12-18T06:46:26.217Z,5.05
2018-12-18T06:48:54.487Z,5.06
2018-12-18T06:51:22.774Z,5.06
2018-12-18T06:53:51.063Z,5.07
2018-12-18T06:56:19.357Z,5.08
2018-12-18T06:58:47.647Z,5.08
2018-12-18T07:01:15.940Z,5.08
2018-12-18T07:03:44.207Z,5.10
2018-12-18T07:06:12.488Z,5.10
2018-12-18T07:08:40.751Z,5.10
2018-12-18T07:11:09.028Z,5.11
2018-12-18T07:13:37.304Z,5.13
2018-12-18T07:16:05.573Z,5.13
2018-12-18T07:18:33.835Z,5.14
2018-12-18T07:21:02.106Z,5.15
2018-12-18T07:23:42.741Z,5.16
2018-12-18T07:26:11.014Z,5.17
2018-12-18T07:28:39.310Z,5.18
2018-12-18T07:31:07.660Z,5.19
2018-12-18T07:33:37.046Z,5.20
2018-12-18T07:36:05.315Z,5.21
2018-12-18T07:38:33.585Z,5.22
2018-12-18T07:41:01.874Z,5.24
2018-12-18T07:43:30.170Z,5.25
2018-12-18T07:45:58.520Z,5.27
2018-12-18T07:48:26.786Z,5.30
2018-12-18T07:51:21.784Z,5.32
2018-12-18T07:53:50.046Z,5.36
2018-12-18T07:56:18.304Z,5.40
2018-12-18T07:58:46.597Z,5.43
2018-12-18T08:01:40.103Z,5.48
2018-12-18T08:04:24.709Z,5.52
2018-12-18T08:09:58.635Z,5.66
2018-12-18T08:15:33.482Z,5.78
2018-12-18T08:18:01.768Z,5.84
2018-12-18T08:20:46.261Z,5.91
2018-12-18T08:23:14.637Z,5.99
2018-12-18T08:25:55.602Z,5.66
2018-12-18T08:28:36.267Z,6.12
2018-12-18T08:31:19.615Z,6.20
2018-12-18T08:33:47.916Z,6.26
2018-12-18T08:36:30.895Z,6.34
2018-12-18T08:39:11.551Z,6.11
2018-12-18T08:41:39.830Z,6.47
2018-12-18T08:44:20.963Z,6.54
2018-12-18T08:46:49.225Z,6.61
2018-12-18T08:49:30.156Z,6.39
2018-12-18T08:51:58.454Z,6.74
2018-12-18T08:54:30.315Z,6.79
2018-12-18T08:57:11.761Z,6.85
2018-12-18T08:59:45.694Z,6.91
2018-12-18T09:02:29.037Z,6.98
2018-12-18T09:05:13.554Z,7.05
2018-12-18T09:07:41.826Z,7.12
2018-12-18T09:10:26.970Z,7.21
2018-12-18T09:13:03.341Z,7.29
2018-12-18T09:15:50.261Z,7.20
2018-12-18T09:18:27.023Z,7.44
2018-12-18T09:21:01.883Z,7.50
2018-12-18T09:23:43.386Z,7.48
2018-12-18T09:26:28.022Z,7.65
2018-12-18T09:29:09.082Z,7.73
2018-12-18T09:31:49.906Z,7.80
2018-12-18T09:34:21.252Z,7.88
2018-12-18T09:37:02.490Z,7.95
2018-12-18T09:39:44.013Z,8.03
2018-12-18T09:45:34.309Z,8.18
2018-12-18T09:48:19.016Z,8.24
2018-12-18T09:50:47.289Z,8.32
2018-12-18T09:53:28.335Z,8.40
2018-12-18T09:56:09.080Z,8.25
2018-12-18T09:58:49.749Z,8.28
2018-12-18T10:01:34.399Z,8.62
2018-12-18T10:04:15.963Z,8.69
2018-12-18T10:07:07.874Z,8.77
2018-12-18T10:09:48.929Z,8.85
2018-12-18T10:12:39.780Z,8.94
2018-12-18T10:15:09.531Z,9.04
2018-12-18T10:17:43.976Z,9.11
2018-12-18T10:20:25.318Z,9.17
2018-12-18T10:23:12.563Z,9.26
2018-12-18T10:25:53.535Z,9.32
2018-12-18T10:28:24.733Z,9.41
2018-12-18T10:31:05.786Z,9.19
2018-12-18T10:33:47.407Z,9.55
2018-12-18T10:36:31.955Z,9.31
2018-12-18T10:39:12.627Z,9.67
2018-12-18T10:41:54.148Z,9.76
2018-12-18T10:44:28.325Z,9.82
2018-12-18T10:47:11.554Z,9.87
2018-12-18T10:49:56.463Z,9.94
2018-12-18T10:52:41.109Z,10.00
2018-12-18T10:55:30.757Z,10.07
2018-12-18T10:58:24.674Z,10.13
2018-12-18T11:01:11.607Z,10.18
2018-12-18T11:03:52.667Z,10.23
2018-12-18T11:06:22.228Z,10.28
2018-12-18T11:09:08.982Z,10.32
2018-12-18T11:11:40.978Z,10.35
2018-12-18T11:14:22.205Z,10.39
2018-12-18T11:17:02.844Z,10.43
2018-12-18T11:19:41.094Z,10.46
2018-12-18T11:22:32.258Z,10.49
2018-12-18T11:25:15.408Z,10.50
2018-12-18T11:27:46.651Z,10.51
2018-12-18T11:30:21.586Z,10.52
2018-12-18T11:32:53.666Z,10.54
2018-12-18T11:35:25.689Z,10.54
2018-12-18T11:38:06.850Z,10.56
2018-12-18T11:40:39.681Z,10.56
2018-12-18T11:43:11.473Z,10.57
2018-12-18T11:48:44.292Z,10.59
2018-12-18T11:51:28.911Z,10.62
2018-12-18T11:54:10.495Z,10.64
2018-12-18T11:56:51.225Z,10.64
2018-12-18T11:59:25.547Z,10.65
2018-12-18T12:02:07.191Z,10.63
2018-12-18T12:04:48.018Z,10.68
2018-12-18T12:07:17.727Z,10.70
2018-12-18T12:09:52.184Z,10.74
2018-12-18T12:12:29.006Z,10.76
2018-12-18T12:15:01.605Z,10.75
2018-12-18T12:20:49.150Z,10.74
2018-12-18T12:26:33.194Z,10.77
2018-12-18T12:29:04.447Z,10.79
2018-12-18T12:37:48.814Z,10.76
2018-12-18T12:43:36.117Z,10.73
2018-12-18T12:46:23.390Z,10.73
2018-12-18T12:51:54.939Z,10.73
2018-12-18T12:54:26.952Z,10.74
2018-12-18T12:57:08.582Z,10.75
2018-12-18T13:02:46.983Z,10.69
2018-12-18T13:05:23.288Z,10.67
2018-12-18T13:07:56.149Z,10.63
2018-12-18T13:10:25.899Z,10.60
2018-12-18T13:13:06.607Z,10.55
2018-12-18T13:15:36.377Z,10.50
2018-12-18T13:18:06.552Z,10.45
2018-12-18T13:20:37.803Z,10.41
2018-12-18T13:23:09.761Z,10.35
2018-12-18T13:25:45.622Z,10.27
2018-12-18T13:28:19.661Z,10.19
2018-12-18T13:30:50.914Z,10.13
2018-12-18T13:33:23.011Z,10.07
2018-12-18T13:35:57.922Z,10.01
2018-12-18T13:38:29.191Z,9.94
2018-12-18T13:40:57.477Z,9.88
2018-12-18T13:46:33.622Z,9.79
2018-12-18T13:49:08.392Z,9.76
2018-12-18T13:54:46.367Z,9.69
2018-12-18T13:57:20.958Z,9.67
2018-12-18T13:59:50.108Z,9.65
2018-12-18T14:02:20.343Z,9.61
2018-12-18T14:04:51.903Z,9.58
2018-12-18T14:07:33.347Z,9.25
2018-12-18T14:10:06.587Z,9.50
2018-12-18T14:12:44.282Z,9.47
2018-12-18T14:15:25.754Z,9.39
2018-12-18T14:18:00.055Z,9.32
2018-12-18T14:20:43.446Z,9.24
2018-12-18T14:23:15.294Z,9.16
2018-12-18T14:25:47.425Z,9.11
2018-12-18T14:28:28.261Z,9.06
2018-12-18T14:30:59.623Z,9.01
2018-12-18T14:33:30.966Z,8.94
2018-12-18T14:36:09.764Z,8.87
2018-12-18T14:38:41.395Z,8.82
2018-12-18T14:41:13.246Z,8.75
2018-12-18T14:43:44.635Z,8.69
2018-12-18T14:46:18.726Z,8.63
2018-12-18T14:48:50.284Z,8.56
2018-12-18T14:51:31.559Z,8.21
2018-12-18T14:54:06.000Z,8.44
2018-12-18T14:56:37.310Z,8.38
2018-12-18T14:59:07.433Z,8.32
2018-12-18T15:01:38.666Z,8.28
2018-12-18T15:04:10.012Z,8.26
2018-12-18T15:06:51.601Z,8.21
2018-12-18T15:09:32.654Z,8.16
2018-12-18T15:12:26.138Z,8.13
2018-12-18T15:14:55.830Z,8.08
2018-12-18T15:17:37.181Z,8.05
2018-12-18T15:20:15.485Z,8.00
2018-12-18T15:22:47.062Z,7.96
2018-12-18T15:25:28.411Z,7.92
2018-12-18T15:31:28.415Z,7.80
2018-12-18T15:34:09.101Z,7.76
2018-12-18T15:39:57.597Z,7.69
2018-12-18T15:42:45.689Z,7.64
2018-12-18T15:45:26.726Z,7.62
2018-12-18T15:48:07.355Z,7.60
2018-12-18T15:50:48.022Z,7.57
2018-12-18T15:53:29.498Z,7.20
2018-12-18T15:55:57.795Z,7.51
2018-12-18T15:58:38.863Z,7.48
2018-12-18T16:01:08.954Z,7.47
2018-12-18T16:03:44.575Z,7.45
2018-12-18T16:15:35.162Z,7.37
2018-12-18T16:18:04.987Z,7.37
2018-12-18T16:20:37.033Z,7.36
2018-12-18T16:29:30.299Z,7.31
2018-12-18T16:32:19.673Z,7.29
2018-12-18T16:35:00.850Z,7.28
2018-12-18T16:37:48.265Z,7.28
2018-12-18T16:40:19.970Z,7.28
2018-12-18T16:45:55.066Z,7.26
2018-12-18T16:48:24.990Z,7.25
2018-12-18T16:54:25.627Z,7.23
2018-12-18T16:56:54.650Z,7.22
2018-12-18T16:59:29.531Z,7.22
2018-12-18T17:01:57.885Z,7.22
2018-12-18T17:04:26.269Z,7.22
2018-12-18T17:07:02.201Z,7.21
2018-12-18T17:09:30.452Z,7.21
2018-12-18T17:11:58.736Z,7.19
2018-12-18T17:14:27.126Z,7.19
2018-12-18T17:20:05.684Z,7.14
2018-12-18T17:22:33.971Z,7.12
2018-12-18T17:25:02.305Z,7.12
2018-12-18T17:27:30.574Z,7.10
2018-12-18T17:29:58.836Z,7.09
2018-12-18T17:32:53.385Z,7.09
2018-12-18T17:35:21.668Z,7.09
2018-12-18T17:38:15.476Z,7.08
2018-12-18T17:40:57.258Z,6.75
2018-12-18T17:43:45.746Z,7.07
2018-12-18T17:46:35.732Z,6.73
2018-12-18T17:49:16.659Z,6.74
2018-12-18T17:51:44.927Z,7.06
2018-12-18T17:57:19.594Z,7.03
2018-12-18T17:59:56.907Z,7.01
2018-12-18T18:02:37.882Z,6.68
2018-12-18T18:11:31.447Z,7.00
2018-12-18T18:17:27.246Z,6.99
2018-12-18T18:20:19.217Z,6.98
2018-12-18T18:22:50.619Z,6.97
2018-12-18T18:25:42.314Z,6.96
2018-12-18T18:28:10.590Z,6.95
2018-12-18T18:34:05.300Z,6.93
2018-12-18T18:36:33.584Z,6.92
2018-12-18T18:42:18.655Z,6.89
2018-12-18T18:44:55.995Z,6.90
2018-12-18T18:47:36.812Z,6.60
2018-12-18T18:53:19.984Z,6.90
2018-12-18T18:55:48.276Z,6.89
2018-12-18T18:58:17.565Z,6.89
2018-12-18T19:00:49.571Z,6.89
2018-12-18T19:03:23.917Z,6.90
2018-12-18T19:06:05.171Z,6.89
2018-12-18T19:08:46.830Z,6.90
2018-12-18T19:11:17.014Z,6.91
2018-12-18T19:13:58.153Z,6.91
2018-12-18T19:16:41.643Z,6.60
2018-12-18T19:19:09.901Z,6.93
2018-12-18T19:22:01.417Z,6.61
2018-12-18T19:24:29.702Z,6.93
2018-12-18T19:30:17.423Z,6.96
2018-12-18T19:32:58.888Z,6.97
2018-12-18T19:45:13.439Z,7.03
2018-12-18T19:47:44.918Z,7.04
2018-12-18T19:50:30.031Z,7.04
2018-12-18T19:53:20.313Z,7.05
2018-12-18T19:59:24.783Z,7.05
2018-12-18T20:08:16.710Z,7.06
2018-12-18T20:10:57.977Z,7.08
2018-12-18T20:13:43.441Z,6.80
2018-12-18T20:16:24.201Z,7.10
2018-12-18T20:18:52.534Z,7.11
2018-12-18T20:21:44.052Z,7.13
2018-12-18T20:24:18.343Z,7.14
2018-12-18T20:26:54.835Z,7.15
2018-12-18T20:35:36.488Z,7.23
2018-12-18T20:38:04.894Z,7.24
2018-12-18T20:40:33.210Z,7.26
2018-12-18T20:43:16.268Z,7.27
2018-12-18T20:46:01.378Z,7.30
2018-12-18T20:48:42.192Z,7.34
2018-12-18T20:51:23.167Z,7.35
2018-12-18T20:57:18.011Z,7.40
2018-12-18T20:59:49.340Z,7.40
2018-12-18T21:02:20.968Z,7.40
2018-12-18T21:04:58.221Z,7.11
2018-12-18T21:07:40.460Z,7.40
2018-12-18T21:10:15.338Z,7.41
2018-12-18T21:13:06.101Z,7.44
2018-12-18T21:15:37.409Z,7.46
2018-12-18T21:21:15.627Z,7.49
2018-12-18T21:23:56.840Z,7.50
2018-12-18T21:26:42.301Z,7.52
2018-12-18T21:29:12.563Z,7.52
2018-12-18T21:31:40.860Z,7.55
2018-12-18T21:37:33.143Z,7.58
2018-12-18T21:43:26.625Z,7.61
2018-12-18T21:45:56.797Z,7.61
2018-12-18T21:51:38.698Z,7.38
2018-12-18T21:54:06.950Z,7.67
2018-12-18T21:56:35.835Z,7.68
2018-12-18T21:59:04.150Z,7.72
2018-12-18T22:01:42.745Z,7.74
2018-12-18T22:04:11.034Z,7.77
2018-12-18T22:07:02.718Z,7.79
2018-12-18T22:09:34.521Z,7.80
2018-12-18T22:12:22.423Z,7.81
2018-12-18T22:15:16.393Z,7.82
2018-12-18T22:21:17.540Z,7.51
2018-12-18T22:26:48.948Z,7.89
2018-12-18T22:29:47.243Z,7.90
2018-12-18T22:32:15.548Z,7.91
2018-12-18T22:34:43.805Z,7.90
2018-12-18T22:37:31.998Z,7.91
2018-12-18T22:40:00.256Z,7.92
2018-12-18T22:42:41.543Z,7.94
2018-12-18T22:45:22.225Z,7.95
2018-12-18T22:47:52.303Z,7.96
2018-12-18T22:50:33.405Z,7.98
2018-12-18T22:53:14.161Z,7.99
2018-12-18T22:55:45.474Z,8.00
2018-12-18T23:04:28.209Z,8.01
2018-12-18T23:07:17.073Z,8.01
2018-12-18T23:09:45.341Z,8.04
2018-12-18T23:12:27.898Z,8.06
2018-12-18T23:18:26.860Z,8.08
2018-12-18T23:21:04.777Z,7.81
2018-12-18T23:26:59.049Z,8.09
2018-12-18T23:29:39.995Z,7.80
2018-12-18T23:35:21.701Z,7.76
2018-12-18T23:44:24.345Z,8.01
2018-12-18T23:47:22.411Z,7.98
2018-12-18T23:53:07.915Z,7.95
2018-12-18T23:55:51.154Z,7.94
2018-12-18T23:58:33.699Z,7.93
